sensor_id;sensor_type;location;lat;lon;timestamp;pressure;altitude;pressure_sealevel;temperature;humidity
50484;BME280;36409;52.168;20.878;2023-05-23T00:02:25;100511.17;;;9.99;59.34
50484;BME280;36409;52.168;20.878;2023-05-23T00:04:56;100503.34;;;9.99;59.27
50484;BME280;36409;52.168;20.878;2023-05-23T00:07:27;100505.09;;;9.97;59.44
50484;BME280;36409;52.168;20.878;2023-05-23T00:09:57;100503.41;;;9.91;59.20
50484;BME280;36409;52.168;20.878;2023-05-23T00:12:26;100507.80;;;9.89;59.17
50484;BME280;36409;52.168;20.878;2023-05-23T00:15:00;100505.22;;;9.86;59.76
50484;BME280;36409;52.168;20.878;2023-05-23T00:17:30;100506.11;;;9.82;59.35
50484;BME280;36409;52.168;20.878;2023-05-23T00:19:59;100505.30;;;9.77;59.67
50484;BME280;36409;52.168;20.878;2023-05-23T00:22:28;100508.78;;;9.74;59.88
50484;BME280;36409;52.168;20.878;2023-05-23T00:24:57;100504.48;;;9.68;60.00
50484;BME280;36409;52.168;20.878;2023-05-23T00:27:29;100501.92;;;9.65;60.12
50484;BME280;36409;52.168;20.878;2023-05-23T00:30:01;100499.31;;;9.65;60.61
50484;BME280;36409;52.168;20.878;2023-05-23T00:32:30;100502.80;;;9.64;60.29
50484;BME280;36409;52.168;20.878;2023-05-23T00:34:59;100498.44;;;9.65;60.43
50484;BME280;36409;52.168;20.878;2023-05-23T00:37:30;100492.38;;;9.64;60.58
50484;BME280;36409;52.168;20.878;2023-05-23T00:40:01;100490.62;;;9.65;60.52
50484;BME280;36409;52.168;20.878;2023-05-23T00:42:31;100493.22;;;9.65;60.52
50484;BME280;36409;52.168;20.878;2023-05-23T00:45:00;100490.62;;;9.65;60.59
50484;BME280;36409;52.168;20.878;2023-05-23T00:47:31;100488.88;;;9.64;61.02
50484;BME280;36409;52.168;20.878;2023-05-23T00:50:00;100488.89;;;9.65;60.86
50484;BME280;36409;52.168;20.878;2023-05-23T00:52:29;100487.16;;;9.63;61.01
50484;BME280;36409;52.168;20.878;2023-05-23T00:55:02;100488.92;;;9.59;60.72
50484;BME280;36409;52.168;20.878;2023-05-23T00:57:33;100490.67;;;9.57;61.26
50484;BME280;36409;52.168;20.878;2023-05-23T01:00:02;100493.28;;;9.57;60.82
50484;BME280;36409;52.168;20.878;2023-05-23T01:02:36;100489.84;;;9.55;61.25
50484;BME280;36409;52.168;20.878;2023-05-23T01:05:10;100485.50;;;9.52;61.00
50484;BME280;36409;52.168;20.878;2023-05-23T01:07:49;100492.48;;;9.49;60.94
50484;BME280;36409;52.168;20.878;2023-05-23T01:10:22;100492.53;;;9.46;60.74
50484;BME280;36409;52.168;20.878;2023-05-23T01:13:03;100491.69;;;9.40;61.07
50484;BME280;36409;52.168;20.878;2023-05-23T01:15:39;100500.39;;;9.36;61.15
50484;BME280;36409;52.168;20.878;2023-05-23T01:18:25;100496.95;;;9.33;61.65
50484;BME280;36409;52.168;20.878;2023-05-23T01:21:00;100496.12;;;9.27;61.36
50484;BME280;36409;52.168;20.878;2023-05-23T01:26:44;100496.17;;;9.20;61.43
50484;BME280;36409;52.168;20.878;2023-05-23T01:29:23;100498.81;;;9.15;61.46
50484;BME280;36409;52.168;20.878;2023-05-23T01:31:54;100499.69;;;9.14;61.56
50484;BME280;36409;52.168;20.878;2023-05-23T01:34:30;100494.47;;;9.12;61.58
50484;BME280;36409;52.168;20.878;2023-05-23T01:37:09;100488.41;;;9.12;61.71
50484;BME280;36409;52.168;20.878;2023-05-23T01:39:39;100490.16;;;9.11;61.51
50484;BME280;36409;52.168;20.878;2023-05-23T01:42:12;100481.48;;;9.09;62.09
50484;BME280;36409;52.168;20.878;2023-05-23T01:44:41;100482.36;;;9.08;61.86
50484;BME280;36409;52.168;20.878;2023-05-23T01:47:14;100474.55;;;9.05;61.89
50484;BME280;36409;52.168;20.878;2023-05-23T01:49:47;100479.77;;;9.05;62.14
50484;BME280;36409;52.168;20.878;2023-05-23T01:52:19;100479.74;;;9.07;62.31
50484;BME280;36409;52.168;20.878;2023-05-23T01:54:57;100473.66;;;9.08;62.22
50484;BME280;36409;52.168;20.878;2023-05-23T01:57:32;100471.09;;;9.03;62.32
50484;BME280;36409;52.168;20.878;2023-05-23T02:00:06;100465.91;;;8.99;62.30
50484;BME280;36409;52.168;20.878;2023-05-23T02:02:41;100462.47;;;8.95;61.93
50484;BME280;36409;52.168;20.878;2023-05-23T02:05:11;100466.84;;;8.91;62.52
50484;BME280;36409;52.168;20.878;2023-05-23T02:07:40;100474.66;;;8.88;62.33
50484;BME280;36409;52.168;20.878;2023-05-23T02:10:10;100467.72;;;8.84;62.49
50484;BME280;36409;52.168;20.878;2023-05-23T02:12:39;100464.30;;;8.82;62.66
50484;BME280;36409;52.168;20.878;2023-05-23T02:15:11;100465.16;;;8.81;62.60
50484;BME280;36409;52.168;20.878;2023-05-23T02:17:50;100461.72;;;8.77;62.71
50484;BME280;36409;52.168;20.878;2023-05-23T02:20:20;100464.33;;;8.74;62.81
50484;BME280;36409;52.168;20.878;2023-05-23T02:22:53;100455.67;;;8.71;62.86
50484;BME280;36409;52.168;20.878;2023-05-23T02:25:26;100452.21;;;8.69;62.89
50484;BME280;36409;52.168;20.878;2023-05-23T02:27:58;100459.16;;;8.67;62.93
50484;BME280;36409;52.168;20.878;2023-05-23T02:30:34;100453.09;;;8.66;62.68
50484;BME280;36409;52.168;20.878;2023-05-23T02:33:12;100446.99;;;8.67;62.87
50484;BME280;36409;52.168;20.878;2023-05-23T02:35:46;100449.63;;;8.64;62.93
50484;BME280;36409;52.168;20.878;2023-05-23T02:38:18;100448.79;;;8.60;63.19
50484;BME280;36409;52.168;20.878;2023-05-23T02:40:47;100446.17;;;8.59;63.33
50484;BME280;36409;52.168;20.878;2023-05-23T02:43:20;100446.17;;;8.59;63.24
50484;BME280;36409;52.168;20.878;2023-05-23T02:45:50;100447.89;;;8.61;63.44
50484;BME280;36409;52.168;20.878;2023-05-23T02:48:20;100442.67;;;8.64;63.39
50484;BME280;36409;52.168;20.878;2023-05-23T02:50:56;100447.89;;;8.66;63.53
50484;BME280;36409;52.168;20.878;2023-05-23T02:53:24;100444.41;;;8.69;63.80
50484;BME280;36409;52.168;20.878;2023-05-23T02:55:55;100444.39;;;8.72;63.64
50484;BME280;36409;52.168;20.878;2023-05-23T02:58:24;100448.69;;;8.76;63.58
50484;BME280;36409;52.168;20.878;2023-05-23T03:00:56;100440.02;;;8.74;63.78
50484;BME280;36409;52.168;20.878;2023-05-23T03:03:28;100445.25;;;8.72;63.57
50484;BME280;36409;52.168;20.878;2023-05-23T03:05:59;100444.39;;;8.72;63.90
50484;BME280;36409;52.168;20.878;2023-05-23T03:08:28;100447.84;;;8.72;63.84
50484;BME280;36409;52.168;20.878;2023-05-23T03:10:57;100445.23;;;8.75;63.90
50484;BME280;36409;52.168;20.878;2023-05-23T03:13:29;100449.53;;;8.79;63.77
50484;BME280;36409;52.168;20.878;2023-05-23T03:16:00;100441.73;;;8.81;64.05
50484;BME280;36409;52.168;20.878;2023-05-23T03:18:39;100437.38;;;8.81;64.02
50484;BME280;36409;52.168;20.878;2023-05-23T03:21:11;100439.09;;;8.84;64.01
50484;BME280;36409;52.168;20.878;2023-05-23T03:23:40;100446.91;;;8.89;64.16
50484;BME280;36409;52.168;20.878;2023-05-23T03:26:09;100445.98;;;8.93;64.19
50484;BME280;36409;52.168;20.878;2023-05-23T03:28:43;100445.11;;;8.97;64.18
50484;BME280;36409;52.168;20.878;2023-05-23T03:31:12;100445.92;;;9.02;64.27
50484;BME280;36409;52.168;20.878;2023-05-23T03:33:43;100440.70;;;9.05;64.65
50484;BME280;36409;52.168;20.878;2023-05-23T03:36:12;100434.61;;;9.08;64.04
50484;BME280;36409;52.168;20.878;2023-05-23T03:38:43;100442.41;;;9.11;64.19
50484;BME280;36409;52.168;20.878;2023-05-23T03:41:13;100439.77;;;9.16;64.38
50484;BME280;36409;52.168;20.878;2023-05-23T03:43:44;100444.06;;;9.21;64.49
50484;BME280;36409;52.168;20.878;2023-05-23T03:46:30;100442.28;;;9.28;64.38
50484;BME280;36409;52.168;20.878;2023-05-23T03:49:57;100437.88;;;9.38;64.67
50484;BME280;36409;52.168;20.878;2023-05-23T03:52:27;100443.85;;;9.48;64.55
50484;BME280;36409;52.168;20.878;2023-05-23T03:54:56;100439.45;;;9.54;64.64
50484;BME280;36409;52.168;20.878;2023-05-23T03:57:25;100443.73;;;9.63;64.61
50484;BME280;36409;52.168;20.878;2023-05-23T03:59:55;100433.22;;;9.72;64.94
50484;BME280;36409;52.168;20.878;2023-05-23T04:02:24;100429.61;;;9.86;64.86
50484;BME280;36409;52.168;20.878;2023-05-23T04:04:54;100432.02;;;10.04;64.50
50484;BME280;36409;52.168;20.878;2023-05-23T04:07:25;100428.16;;;10.40;64.26
50484;BME280;36409;52.168;20.878;2023-05-23T04:09:58;100421.81;;;10.59;64.75
50484;BME280;36409;52.168;20.878;2023-05-23T04:12:32;100424.47;;;11.17;64.74
50484;BME280;36409;52.168;20.878;2023-05-23T04:15:09;100422.29;;;12.80;64.98
50484;BME280;36409;52.168;20.878;2023-05-23T04:17:48;100417.58;;;13.33;65.24
50484;BME280;36409;52.168;20.878;2023-05-23T04:20:20;100413.92;;;14.38;63.48
50484;BME280;36409;52.168;20.878;2023-05-23T04:22:57;100419.58;;;14.54;63.67
50484;BME280;36409;52.168;20.878;2023-05-23T04:25:29;100424.14;;;14.47;63.40
50484;BME280;36409;52.168;20.878;2023-05-23T04:28:13;100420.97;;;14.35;63.20
50484;BME280;36409;52.168;20.878;2023-05-23T04:30:45;100418.21;;;14.40;62.97
50484;BME280;36409;52.168;20.878;2023-05-23T04:33:19;100415.45;;;14.45;62.58
50484;BME280;36409;52.168;20.878;2023-05-23T04:35:51;100415.82;;;14.62;62.02
50484;BME280;36409;52.168;20.878;2023-05-23T04:38:23;100416.86;;;14.87;61.64
50484;BME280;36409;52.168;20.878;2023-05-23T04:40:55;100410.70;;;14.88;61.72
50484;BME280;36409;52.168;20.878;2023-05-23T04:43:28;100410.67;;;15.16;61.59
50484;BME280;36409;52.168;20.878;2023-05-23T04:46:08;100413.16;;;16.92;60.18
50484;BME280;36409;52.168;20.878;2023-05-23T04:48:50;100400.67;;;19.34;58.95
50484;BME280;36409;52.168;20.878;2023-05-23T04:51:21;100398.71;;;21.35;57.73
50484;BME280;36409;52.168;20.878;2023-05-23T04:54:05;100400.23;;;23.38;56.32
50484;BME280;36409;52.168;20.878;2023-05-23T04:56:36;100398.53;;;25.02;55.12
50484;BME280;36409;52.168;20.878;2023-05-23T04:59:05;100388.47;;;26.34;52.45
50484;BME280;36409;52.168;20.878;2023-05-23T05:01:40;100394.34;;;27.37;50.71
50484;BME280;36409;52.168;20.878;2023-05-23T05:04:24;100393.56;;;28.70;49.48
50484;BME280;36409;52.168;20.878;2023-05-23T05:06:59;100393.91;;;29.83;47.80
50484;BME280;36409;52.168;20.878;2023-05-23T05:09:36;100385.67;;;30.78;46.64
50484;BME280;36409;52.168;20.878;2023-05-23T05:12:09;100389.13;;;31.69;44.56
50484;BME280;36409;52.168;20.878;2023-05-23T05:14:41;100383.89;;;32.45;43.52
50484;BME280;36409;52.168;20.878;2023-05-23T05:17:10;100376.73;;;33.20;42.09
50484;BME280;36409;52.168;20.878;2023-05-23T05:19:55;100382.75;;;33.80;40.86
50484;BME280;36409;52.168;20.878;2023-05-23T05:22:24;100373.41;;;34.31;38.98
50484;BME280;36409;52.168;20.878;2023-05-23T05:24:55;100373.01;;;34.74;37.78
50484;BME280;36409;52.168;20.878;2023-05-23T05:27:25;100367.86;;;34.24;37.99
50484;BME280;36409;52.168;20.878;2023-05-23T05:29:57;100374.89;;;33.37;37.56
50484;BME280;36409;52.168;20.878;2023-05-23T05:32:40;100377.16;;;32.41;36.75
50484;BME280;36409;52.168;20.878;2023-05-23T05:35:11;100372.69;;;33.08;35.57
50484;BME280;36409;52.168;20.878;2023-05-23T05:37:48;100372.55;;;33.99;35.09
50484;BME280;36409;52.168;20.878;2023-05-23T05:40:21;100371.37;;;34.88;33.53
50484;BME280;36409;52.168;20.878;2023-05-23T05:42:51;100369.63;;;35.71;33.82
50484;BME280;36409;52.168;20.878;2023-05-23T05:45:28;100374.43;;;36.36;32.61
50484;BME280;36409;52.168;20.878;2023-05-23T05:48:09;100374.34;;;36.66;31.52
50484;BME280;36409;52.168;20.878;2023-05-23T05:50:40;100376.34;;;36.79;30.91
50484;BME280;36409;52.168;20.878;2023-05-23T05:53:18;100374.90;;;37.27;30.83
50484;BME280;36409;52.168;20.878;2023-05-23T05:55:48;100366.02;;;37.75;30.07
50484;BME280;36409;52.168;20.878;2023-05-23T05:58:18;100368.07;;;38.08;29.49
50484;BME280;36409;52.168;20.878;2023-05-23T06:01:13;100369.11;;;38.69;28.67
50484;BME280;36409;52.168;20.878;2023-05-23T06:03:46;100361.61;;;39.31;28.43
50484;BME280;36409;52.168;20.878;2023-05-23T06:06:18;100364.89;;;39.60;27.97
50484;BME280;36409;52.168;20.878;2023-05-23T06:08:49;100362.17;;;39.53;27.05
50484;BME280;36409;52.168;20.878;2023-05-23T06:11:18;100356.13;;;38.77;27.22
50484;BME280;36409;52.168;20.878;2023-05-23T06:13:53;100368.91;;;38.01;27.29
50484;BME280;36409;52.168;20.878;2023-05-23T06:16:41;100360.62;;;38.30;26.37
50484;BME280;36409;52.168;20.878;2023-05-23T06:19:29;100364.17;;;35.86;27.22
50484;BME280;36409;52.168;20.878;2023-05-23T06:22:02;100356.70;;;33.87;28.31
50484;BME280;36409;52.168;20.878;2023-05-23T06:24:42;100359.06;;;32.25;28.95
50484;BME280;36409;52.168;20.878;2023-05-23T06:27:18;100360.27;;;30.63;29.45
50484;BME280;36409;52.168;20.878;2023-05-23T06:29:55;100362.91;;;28.82;29.93
50484;BME280;36409;52.168;20.878;2023-05-23T06:32:24;100359.14;;;27.63;31.02
50484;BME280;36409;52.168;20.878;2023-05-23T06:34:54;100353.41;;;26.60;31.30
50484;BME280;36409;52.168;20.878;2023-05-23T06:37:25;100354.30;;;25.69;32.07
50484;BME280;36409;52.168;20.878;2023-05-23T06:39:56;100347.89;;;24.89;32.26
50484;BME280;36409;52.168;20.878;2023-05-23T06:42:27;100347.30;;;24.48;33.19
50484;BME280;36409;52.168;20.878;2023-05-23T06:45:09;100347.70;;;24.18;33.42
50484;BME280;36409;52.168;20.878;2023-05-23T06:47:39;100345.94;;;23.80;33.55
50484;BME280;36409;52.168;20.878;2023-05-23T06:50:14;100342.09;;;23.45;34.24
50484;BME280;36409;52.168;20.878;2023-05-23T06:52:50;100333.23;;;23.32;34.53
50484;BME280;36409;52.168;20.878;2023-05-23T06:55:20;100332.44;;;23.17;35.12
50484;BME280;36409;52.168;20.878;2023-05-23T06:57:51;100339.13;;;22.96;35.41
50484;BME280;36409;52.168;20.878;2023-05-23T07:00:27;100338.73;;;22.75;35.66
50484;BME280;36409;52.168;20.878;2023-05-23T07:03:14;100332.13;;;22.68;36.06
50484;BME280;36409;52.168;20.878;2023-05-23T07:05:49;100336.77;;;22.64;36.33
50484;BME280;36409;52.168;20.878;2023-05-23T07:08:20;100328.06;;;22.62;36.15
50484;BME280;36409;52.168;20.878;2023-05-23T07:10:57;100323.47;;;22.64;36.55
50484;BME280;36409;52.168;20.878;2023-05-23T07:13:35;100326.99;;;22.65;36.49
50484;BME280;36409;52.168;20.878;2023-05-23T07:16:05;100319.52;;;22.57;37.01
50484;BME280;36409;52.168;20.878;2023-05-23T07:18:38;100317.27;;;22.51;36.92
50484;BME280;36409;52.168;20.878;2023-05-23T07:21:07;100314.23;;;22.43;37.05
50484;BME280;36409;52.168;20.878;2023-05-23T07:23:39;100309.67;;;22.45;37.25
50484;BME280;36409;52.168;20.878;2023-05-23T07:26:08;100307.28;;;22.55;37.27
50484;BME280;36409;52.168;20.878;2023-05-23T07:28:48;100303.28;;;22.75;37.52
50484;BME280;36409;52.168;20.878;2023-05-23T07:31:21;100311.63;;;22.83;37.23
50484;BME280;36409;52.168;20.878;2023-05-23T07:33:56;100300.23;;;22.81;37.63
50484;BME280;36409;52.168;20.878;2023-05-23T07:36:32;100301.06;;;22.81;37.06
50484;BME280;36409;52.168;20.878;2023-05-23T07:39:04;100295.44;;;22.86;37.19
50484;BME280;36409;52.168;20.878;2023-05-23T07:41:37;100293.45;;;22.90;37.34
50484;BME280;36409;52.168;20.878;2023-05-23T07:44:08;100295.04;;;22.92;37.51
50484;BME280;36409;52.168;20.878;2023-05-23T07:46:51;100291.11;;;22.98;37.51
50484;BME280;36409;52.168;20.878;2023-05-23T07:49:24;100288.14;;;23.03;37.04
50484;BME280;36409;52.168;20.878;2023-05-23T07:51:54;100286.44;;;23.02;36.85
50484;BME280;36409;52.168;20.878;2023-05-23T07:54:26;100280.67;;;22.95;36.90
50484;BME280;36409;52.168;20.878;2023-05-23T07:57:05;100284.59;;;22.89;36.59
50484;BME280;36409;52.168;20.878;2023-05-23T07:59:35;100283.77;;;23.02;37.11
50484;BME280;36409;52.168;20.878;2023-05-23T08:02:04;100286.87;;;23.08;36.62
50484;BME280;36409;52.168;20.878;2023-05-23T08:04:41;100282.19;;;23.12;36.48
50484;BME280;36409;52.168;20.878;2023-05-23T08:07:11;100280.08;;;23.17;36.37
50484;BME280;36409;52.168;20.878;2023-05-23T08:10:00;100281.17;;;23.27;36.81
50484;BME280;36409;52.168;20.878;2023-05-23T08:12:32;100275.61;;;23.31;36.45
50484;BME280;36409;52.168;20.878;2023-05-23T08:15:09;100285.73;;;23.38;36.53
50484;BME280;36409;52.168;20.878;2023-05-23T08:17:48;100285.20;;;23.46;36.31
50484;BME280;36409;52.168;20.878;2023-05-23T08:20:19;100274.77;;;23.56;35.93
50484;BME280;36409;52.168;20.878;2023-05-23T08:23:00;100274.33;;;23.62;36.28
50484;BME280;36409;52.168;20.878;2023-05-23T08:25:30;100278.58;;;23.65;35.45
50484;BME280;36409;52.168;20.878;2023-05-23T08:28:00;100271.66;;;23.62;35.66
50484;BME280;36409;52.168;20.878;2023-05-23T08:30:48;100267.05;;;23.77;35.57
50484;BME280;36409;52.168;20.878;2023-05-23T08:33:18;100272.13;;;23.93;35.65
50484;BME280;36409;52.168;20.878;2023-05-23T08:35:49;100262.95;;;24.10;35.36
50484;BME280;36409;52.168;20.878;2023-05-23T08:38:21;100258.48;;;24.35;35.04
50484;BME280;36409;52.168;20.878;2023-05-23T08:41:20;100261.33;;;24.69;34.61
50484;BME280;36409;52.168;20.878;2023-05-23T08:43:53;100257.98;;;24.90;35.21
50484;BME280;36409;52.168;20.878;2023-05-23T08:46:28;100256.83;;;25.05;34.89
50484;BME280;36409;52.168;20.878;2023-05-23T08:48:59;100251.28;;;25.31;35.01
50484;BME280;36409;52.168;20.878;2023-05-23T08:51:29;100247.05;;;25.63;34.35
50484;BME280;36409;52.168;20.878;2023-05-23T08:54:02;100251.38;;;25.98;34.32
50484;BME280;36409;52.168;20.878;2023-05-23T08:56:31;100241.98;;;26.26;34.26
50484;BME280;36409;52.168;20.878;2023-05-23T08:59:11;100242.42;;;26.43;33.70
50484;BME280;36409;52.168;20.878;2023-05-23T09:01:55;100243.55;;;26.61;33.65
50484;BME280;36409;52.168;20.878;2023-05-23T09:04:29;100234.70;;;26.82;33.13
50484;BME280;36409;52.168;20.878;2023-05-23T09:07:05;100248.17;;;27.13;33.10
50484;BME280;36409;52.168;20.878;2023-05-23T09:09:34;100238.20;;;27.46;32.89
50484;BME280;36409;52.168;20.878;2023-05-23T09:12:07;100241.94;;;27.65;32.36
50484;BME280;36409;52.168;20.878;2023-05-23T09:14:40;100252.59;;;27.86;32.19
50484;BME280;36409;52.168;20.878;2023-05-23T09:17:22;100237.52;;;28.04;32.08
50484;BME280;36409;52.168;20.878;2023-05-23T09:19:53;100233.61;;;28.09;31.92
50484;BME280;36409;52.168;20.878;2023-05-23T09:22:50;100234.98;;;28.03;31.37
50484;BME280;36409;52.168;20.878;2023-05-23T09:25:21;100238.58;;;27.82;31.47
50484;BME280;36409;52.168;20.878;2023-05-23T09:27:51;100221.70;;;27.92;31.35
50484;BME280;36409;52.168;20.878;2023-05-23T09:30:32;100225.14;;;28.13;31.17
50484;BME280;36409;52.168;20.878;2023-05-23T09:33:08;100232.08;;;28.26;31.18
50484;BME280;36409;52.168;20.878;2023-05-23T09:35:44;100225.42;;;28.30;30.80
50484;BME280;36409;52.168;20.878;2023-05-23T09:38:18;100219.20;;;28.39;30.74
50484;BME280;36409;52.168;20.878;2023-05-23T09:40:48;100224.71;;;28.67;30.40
50484;BME280;36409;52.168;20.878;2023-05-23T09:43:24;100223.59;;;28.79;30.40
50484;BME280;36409;52.168;20.878;2023-05-23T09:46:00;100226.78;;;29.03;30.15
50484;BME280;36409;52.168;20.878;2023-05-23T09:48:34;100218.11;;;29.19;30.18
50484;BME280;36409;52.168;20.878;2023-05-23T09:51:18;100215.30;;;29.58;30.53
50484;BME280;36409;52.168;20.878;2023-05-23T09:53:49;100215.43;;;29.84;30.33
50484;BME280;36409;52.168;20.878;2023-05-23T09:56:23;100217.05;;;29.77;29.46
50484;BME280;36409;52.168;20.878;2023-05-23T09:58:57;100211.95;;;29.74;29.68
50484;BME280;36409;52.168;20.878;2023-05-23T10:01:31;100216.92;;;29.69;29.47
50484;BME280;36409;52.168;20.878;2023-05-23T10:04:09;100209.83;;;29.50;29.17
50484;BME280;36409;52.168;20.878;2023-05-23T10:06:43;100208.75;;;29.33;29.14
50484;BME280;36409;52.168;20.878;2023-05-23T10:09:22;100214.53;;;29.28;29.19
50484;BME280;36409;52.168;20.878;2023-05-23T10:12:33;100220.08;;;29.36;28.96
50484;BME280;36409;52.168;20.878;2023-05-23T10:15:08;100207.72;;;29.43;29.15
50484;BME280;36409;52.168;20.878;2023-05-23T10:17:52;100211.56;;;29.41;28.67
50484;BME280;36409;52.168;20.878;2023-05-23T10:20:28;100205.72;;;29.08;28.33
50484;BME280;36409;52.168;20.878;2023-05-23T10:23:00;100200.80;;;28.93;28.44
50484;BME280;36409;52.168;20.878;2023-05-23T10:25:29;100204.21;;;28.86;28.44
50484;BME280;36409;52.168;20.878;2023-05-23T10:27:59;100201.25;;;28.89;28.44
50484;BME280;36409;52.168;20.878;2023-05-23T10:30:42;100197.34;;;29.11;28.49
50484;BME280;36409;52.168;20.878;2023-05-23T10:33:17;100198.49;;;29.08;28.32
50484;BME280;36409;52.168;20.878;2023-05-23T10:35:55;100200.73;;;29.13;28.33
50484;BME280;36409;52.168;20.878;2023-05-23T10:38:33;100195.31;;;29.33;28.43
50484;BME280;36409;52.168;20.878;2023-05-23T10:41:12;100196.77;;;29.55;28.16
50484;BME280;36409;52.168;20.878;2023-05-23T10:43:54;100198.10;;;29.69;28.22
50484;BME280;36409;52.168;20.878;2023-05-23T10:46:54;100184.77;;;29.77;28.12
50484;BME280;36409;52.168;20.878;2023-05-23T10:49:44;100188.42;;;29.58;28.01
50484;BME280;36409;52.168;20.878;2023-05-23T10:52:17;100190.36;;;29.66;27.79
50484;BME280;36409;52.168;20.878;2023-05-23T10:54:49;100197.89;;;29.80;27.85
50484;BME280;36409;52.168;20.878;2023-05-23T10:57:24;100192.50;;;30.08;28.09
50484;BME280;36409;52.168;20.878;2023-05-23T10:59:55;100182.58;;;30.09;27.66
50484;BME280;36409;52.168;20.878;2023-05-23T11:02:30;100183.69;;;29.88;27.23
50484;BME280;36409;52.168;20.878;2023-05-23T11:05:20;100181.59;;;29.64;27.59
50484;BME280;36409;52.168;20.878;2023-05-23T11:08:13;100179.77;;;29.26;27.59
50484;BME280;36409;52.168;20.878;2023-05-23T11:11:01;100181.90;;;28.85;27.49
50484;BME280;36409;52.168;20.878;2023-05-23T11:13:54;100178.53;;;28.54;27.54
50484;BME280;36409;52.168;20.878;2023-05-23T11:16:28;100172.91;;;28.37;28.48
50484;BME280;36409;52.168;20.878;2023-05-23T11:19:25;100183.49;;;28.39;28.07
50484;BME280;36409;52.168;20.878;2023-05-23T11:21:57;100175.44;;;28.39;28.09
50484;BME280;36409;52.168;20.878;2023-05-23T11:24:49;100167.80;;;28.54;27.85
50484;BME280;36409;52.168;20.878;2023-05-23T11:27:28;100167.22;;;28.79;27.89
50484;BME280;36409;52.168;20.878;2023-05-23T11:29:59;100167.39;;;29.16;27.94
50484;BME280;36409;52.168;20.878;2023-05-23T11:32:30;100155.13;;;29.31;27.90
50484;BME280;36409;52.168;20.878;2023-05-23T11:35:03;100159.59;;;29.50;27.82
50484;BME280;36409;52.168;20.878;2023-05-23T11:37:35;100153.84;;;29.63;27.76
50484;BME280;36409;52.168;20.878;2023-05-23T11:40:27;100160.41;;;29.79;27.92
50484;BME280;36409;52.168;20.878;2023-05-23T11:42:58;100150.35;;;29.81;27.68
50484;BME280;36409;52.168;20.878;2023-05-23T11:45:29;100147.50;;;29.82;27.50
50484;BME280;36409;52.168;20.878;2023-05-23T11:48:14;100149.09;;;29.57;27.19
50484;BME280;36409;52.168;20.878;2023-05-23T11:50:48;100147.52;;;29.36;27.36
50484;BME280;36409;52.168;20.878;2023-05-23T11:53:19;100136.90;;;29.35;27.24
50484;BME280;36409;52.168;20.878;2023-05-23T11:55:52;100138.75;;;29.34;27.19
50484;BME280;36409;52.168;20.878;2023-05-23T11:58:21;100145.20;;;29.41;27.12
50484;BME280;36409;52.168;20.878;2023-05-23T12:00:51;100137.02;;;29.43;27.29
50484;BME280;36409;52.168;20.878;2023-05-23T12:03:23;100136.59;;;29.66;27.40
50484;BME280;36409;52.168;20.878;2023-05-23T12:05:56;100135.89;;;29.64;27.11
50484;BME280;36409;52.168;20.878;2023-05-23T12:08:25;100132.02;;;29.48;27.35
50484;BME280;36409;52.168;20.878;2023-05-23T12:10:57;100132.42;;;29.53;27.28
50484;BME280;36409;52.168;20.878;2023-05-23T12:13:28;100140.78;;;29.50;27.06
50484;BME280;36409;52.168;20.878;2023-05-23T12:16:00;100134.08;;;29.36;27.27
50484;BME280;36409;52.168;20.878;2023-05-23T12:18:32;100132.97;;;29.57;27.25
50484;BME280;36409;52.168;20.878;2023-05-23T12:21:06;100134.66;;;29.58;27.24
50484;BME280;36409;52.168;20.878;2023-05-23T12:23:36;100125.27;;;29.62;27.18
50484;BME280;36409;52.168;20.878;2023-05-23T12:26:08;100128.73;;;29.72;26.84
50484;BME280;36409;52.168;20.878;2023-05-23T12:28:41;100135.19;;;29.62;26.94
50484;BME280;36409;52.168;20.878;2023-05-23T12:31:15;100126.48;;;29.22;26.78
50484;BME280;36409;52.168;20.878;2023-05-23T12:33:46;100132.58;;;28.86;26.80
50484;BME280;36409;52.168;20.878;2023-05-23T12:36:22;100122.13;;;28.83;26.77
50484;BME280;36409;52.168;20.878;2023-05-23T12:38:54;100118.65;;;29.01;27.03
50484;BME280;36409;52.168;20.878;2023-05-23T12:41:30;100118.78;;;29.09;27.07
50484;BME280;36409;52.168;20.878;2023-05-23T12:44:02;100116.66;;;29.03;27.05
50484;BME280;36409;52.168;20.878;2023-05-23T12:46:31;100124.08;;;28.91;27.03
50484;BME280;36409;52.168;20.878;2023-05-23T12:49:00;100118.63;;;28.73;26.76
50484;BME280;36409;52.168;20.878;2023-05-23T12:51:31;100118.63;;;28.73;27.28
50484;BME280;36409;52.168;20.878;2023-05-23T12:54:00;100114.09;;;28.73;27.27
50484;BME280;36409;52.168;20.878;2023-05-23T12:56:30;100103.89;;;28.77;27.38
50484;BME280;36409;52.168;20.878;2023-05-23T12:59:04;100107.64;;;28.94;27.95
50484;BME280;36409;52.168;20.878;2023-05-23T13:01:34;100101.80;;;29.08;27.59
50484;BME280;36409;52.168;20.878;2023-05-23T13:04:08;100101.47;;;28.84;27.61
50484;BME280;36409;52.168;20.878;2023-05-23T13:06:38;100100.64;;;28.83;27.54
50484;BME280;36409;52.168;20.878;2023-05-23T13:09:09;100104.39;;;29.00;27.91
50484;BME280;36409;52.168;20.878;2023-05-23T13:11:40;100100.42;;;29.04;27.38
50484;BME280;36409;52.168;20.878;2023-05-23T13:14:13;100098.31;;;28.98;27.27
50484;BME280;36409;52.168;20.878;2023-05-23T13:16:46;100094.28;;;28.84;27.21
50484;BME280;36409;52.168;20.878;2023-05-23T13:19:22;100090.63;;;28.75;27.45
50484;BME280;36409;52.168;20.878;2023-05-23T13:21:52;100091.63;;;28.74;27.60
50484;BME280;36409;52.168;20.878;2023-05-23T13:24:23;100096.81;;;28.86;27.87